Pemberton, Minnesota
Current Conditions -  °F | °C
As of 4:55 AM on Friday 19 Dec 2014 (Local Time) from KACQ Reporting Station
Overcast Overcast  
Wind Chill: 18°   Ceiling: 1600
Heat Index: 25°   Visibility: 7mi
Dew Point: 21°   Wind: 6mph
Humidity: 86%   Direction: 150°SSE
Pressure: 30.24"   Gusts: NA
Location:  44.01°N, 93.78°W
Report Text: KACQ 191055Z AUTO 15005KT 7SM OVC016 M04/M06 A3024 RMK AO2
Loading
Personal Weather Stations






























Interactive Weather Map New forecast layout! Learn more

10-Day Weather Forecast

Advertisements
Track Severe Weather on mobile